Aurora, IL

2:52 PM CDT on July 05, 2015 (GMT -0500)
Stonehaven | | Change Station
CLOSE
Current Station
Personal Weather Station
Location: Aurora, IL
Elevation: 699 ft
Nearby Weather Stations

Elev 699 ft 41.74 °N, 88.21 °W | Updated 9 minutes ago

Clear
Clear
89.8 °F
Feels Like 92 °F
N
3.2
Wind Variable Wind from South

Today
High -- | Low -- °F
--% Chance of Precip.
Yesterday
High -- | Low -- °F
Precip. -- in
5:24 AM 8:30 PM
Waning Gibbous, 82% visible
Pressure 30.05 in
Visibility 9.0 miles
Clouds Clear
Heat Index 92 °F
Dew Point 66 °F
Humidity 45%
Rainfall 0.00 in
Snow Depth Not available.
UV 11 out of 12
Pollen 3.90 out of 12
Air Quality Not available.
Flu Activity Not available.
METAR KDPA 051852Z 17008KT 9SM CLR 27/17 A3006 RMK AO2 SLP174 T02720167

More Conditions Fewer Conditions

Pressure 30.05 in
Visibility 9.0 miles
Clouds Clear
Heat Index 92 °F
Dew Point 66 °F
Humidity 45%
Rainfall 0.00 in
Snow Depth Not available.
UV 11 out of 12
Pollen 3.90 out of 12
Air Quality Not available.
Flu Activity Not available.
METAR KDPA 051852Z 17008KT 9SM CLR 27/17 A3006 RMK AO2 SLP174 T02720167

More Conditions Fewer Conditions

10-Day Weather Forecast

×

Almanac

Astronomy

Jul. 05, 2015 Rise Set
Actual Time
Civil Twilight
Nautical Twilight
Astronomical Twilight
Moon
Length of Visible Light
Length of Day
Tomorrow will be .
, % of the Moon is Illuminated

Today's Extremes

State Highs State Lows

Community

WunderPhotos

Upload Photos

1,835,360 photos uploaded!

WunderBlogs® & News

Nearby

Air Quality

  Air Quality AQ Index Pollutant
Not available.

Snow Depth

Station Depth Elevation

Earthquake Activity

City Distance Mag. Time & Date
Minimum magnitude displayed is 2.5.

Coastal Water Temperatures

Place Temperature

Stations

Nearby Weather Stations

Station Location Temp. Windchill Dew Point Humidity Wind Precip. Elev Updated Type